Time;durP1;ratioP1;P1;durP2;ratioP2;P2;SDS_P1;SDS_P2;PMS_P1;PMS_P2;Temp;Humidity;BMP_temperature;BMP_pressure;BME280_temperature;BME280_humidity;BME280_pressure;Samples;Min_cycle;Max_cycle;Signal;HPM_P1;HPM_P2
2021/01/21 00:00:58;;;;;;;10.38;7.00;;;;;;;1.26;85.52;97478.66;4990424;28;20113;-75
2021/01/21 00:03:23;;;;;;;13.73;6.97;;;;;;;1.21;85.79;97467.63;4993306;28;20101;-75
2021/01/21 00:05:49;;;;;;;12.93;7.28;;;;;;;1.26;85.83;97458.25;4993189;28;20030;-75
2021/01/21 00:08:14;;;;;;;12.75;7.68;;;;;;;1.21;85.68;97466.75;4993369;28;20082;-75
2021/01/21 00:10:39;;;;;;;12.95;7.28;;;;;;;1.27;85.55;97442.09;4992915;28;20030;-75
2021/01/21 00:13:04;;;;;;;12.95;7.07;;;;;;;1.19;85.45;97448.91;4993203;28;20026;-75
2021/01/21 00:15:30;;;;;;;10.20;5.90;;;;;;;1.22;85.47;97454.00;4993132;28;20054;-75
2021/01/21 00:17:55;;;;;;;10.70;6.88;;;;;;;1.28;85.37;97454.00;4993211;28;20042;-74
2021/01/21 00:20:21;;;;;;;10.75;6.95;;;;;;;1.42;84.27;97451.41;4992909;28;20069;-75
2021/01/21 00:22:46;;;;;;;11.48;6.85;;;;;;;1.38;84.55;97454.81;4992943;28;20041;-75
2021/01/21 00:25:11;;;;;;;15.32;7.43;;;;;;;1.60;83.72;97463.25;4992536;28;20478;-75
2021/01/21 00:27:37;;;;;;;12.50;6.38;;;;;;;1.54;83.83;97450.50;4993132;28;20105;-74
2021/01/21 00:30:08;;;;;;;9.77;5.70;;;;;;;1.52;83.29;97482.84;4993055;28;20034;-75
2021/01/21 00:32:34;;;;;;;9.88;5.78;;;;;;;1.51;83.08;97491.34;5007973;28;20024;-75
2021/01/21 00:34:59;;;;;;;14.23;7.07;;;;;;;1.48;83.62;97486.25;4992808;28;20027;-75
2021/01/21 00:37:24;;;;;;;11.00;6.20;;;;;;;1.47;83.65;97466.69;4992836;28;20026;-75
2021/01/21 00:39:49;;;;;;;10.93;6.55;;;;;;;1.56;83.81;97469.22;4992935;28;20114;-75
2021/01/21 00:42:15;;;;;;;8.30;5.90;;;;;;;1.61;83.72;97472.59;4991334;28;20033;-75
2021/01/21 00:44:40;;;;;;;11.15;5.10;;;;;;;1.66;82.77;97464.94;4992789;28;20029;-75
2021/01/21 00:47:05;;;;;;;10.57;5.82;;;;;;;1.70;82.80;97464.91;4992733;28;20092;-74
2021/01/21 00:49:31;;;;;;;13.15;5.88;;;;;;;1.71;82.94;97464.06;4992744;28;20053;-75
2021/01/21 00:51:56;;;;;;;8.95;5.45;;;;;;;1.79;82.15;97472.53;4992537;28;20490;-75
2021/01/21 00:54:21;;;;;;;7.10;5.40;;;;;;;1.82;81.53;97452.94;4992552;28;20467;-74
2021/01/21 00:56:46;;;;;;;7.63;5.38;;;;;;;1.76;81.78;97462.31;4992682;28;20034;-75
2021/01/21 00:59:12;;;;;;;13.35;6.50;;;;;;;1.69;82.27;97459.78;4992660;28;20050;-75
2021/01/21 07:02:55;;;;;;;1.13;0.98;;;;;;;10.34;39.57;97342.22;5062501;23;20219;-70
2021/01/21 07:05:23;;;;;;;1.27;1.17;;;;;;;10.25;39.98;97358.09;4903547;29;20032;-70
2021/01/21 07:08:03;;;;;;;8.60;1.30;;;;;;;10.38;40.41;97359.31;4914457;29;20115;-69
2021/01/21 07:10:44;;;;;;;2.70;1.10;;;;;;;10.43;40.59;97341.84;4905297;29;20493;-69
2021/01/21 07:13:15;;;;;;;2.05;1.33;;;;;;;10.36;40.92;97366.31;4904996;29;20033;-69
2021/01/21 07:15:44;;;;;;;6.88;4.93;;;;;;;10.59;41.52;97348.97;4944951;23;20036;-72
2021/01/21 07:18:15;;;;;;;5.25;1.80;;;;;;;10.53;43.53;97325.03;4936847;28;20024;-72
2021/01/21 07:20:59;;;;;;;2.58;1.02;;;;;;;10.67;43.97;97359.88;4935955;29;20501;-72
2021/01/21 07:23:42;;;;;;;0.98;0.98;;;;;;;10.66;45.01;97350.44;4950647;29;20488;-72
2021/01/21 07:26:39;;;;;;;4.43;1.83;;;;;;;10.65;45.11;97348.75;4930018;29;20024;-72
2021/01/21 07:29:19;;;;;;;3.22;1.40;;;;;;;10.66;45.92;97346.09;4910296;29;20048;-72
2021/01/21 07:31:55;;;;;;;1.10;1.00;;;;;;;10.52;45.67;97333.69;4918156;29;20060;-72
2021/01/21 07:34:39;;;;;;;15.90;7.80;;;;;;;10.40;46.43;97347.16;4928944;29;20532;-72
2021/01/21 07:37:10;;;;;;;1.20;0.90;;;;;;;10.49;45.44;97330.38;4928624;29;20118;-72
2021/01/21 07:40:03;;;;;;;1.00;0.90;;;;;;;10.53;45.31;97322.44;4920253;29;20068;-72
2021/01/21 07:42:36;;;;;;;1.50;1.20;;;;;;;10.44;46.34;97319.38;4943401;28;20440;-72
2021/01/21 07:45:16;;;;;;;2.08;1.13;;;;;;;10.46;45.33;97321.00;4928084;29;20042;-72
2021/01/21 07:47:43;;;;;;;4.97;1.58;;;;;;;10.55;44.83;97330.16;4919939;29;20547;-72
2021/01/21 07:50:24;;;;;;;5.65;1.42;;;;;;;10.54;44.83;97321.56;4931155;29;20485;-72
2021/01/21 07:52:58;;;;;;;4.38;2.00;;;;;;;10.49;45.64;97320.91;4926612;29;20036;-72
2021/01/21 07:55:44;;;;;;;1.00;0.90;;;;;;;10.38;45.36;97302.34;4921061;28;20024;-72
2021/01/21 07:58:20;;;;;;;14.48;6.18;;;;;;;10.47;44.97;97314.94;4906676;29;20028;-72
2021/01/21 08:00:50;;;;;;;5.18;1.30;;;;;;;10.51;44.17;97313.06;4926390;29;20020;-72
2021/01/21 08:03:46;;;;;;;1.10;1.00;;;;;;;10.63;44.11;97304.75;4929714;29;20094;-72
2021/01/21 08:06:17;;;;;;;3.15;1.42;;;;;;;10.66;44.15;97316.75;4907415;29;20123;-72
2021/01/21 08:08:52;;;;;;;6.47;3.22;;;;;;;10.71;44.86;97305.28;4926653;29;20027;-72
2021/01/21 08:11:20;;;;;;;10.05;2.85;;;;;;;10.78;44.34;97311.91;4929620;29;20441;-72
2021/01/21 08:13:49;;;;;;;1.73;1.08;;;;;;;10.85;45.53;97294.34;4919451;29;20043;-72
2021/01/21 08:16:18;;;;;;;6.07;2.58;;;;;;;11.30;45.13;97304.44;4929762;29;20468;-72
2021/01/21 08:18:45;;;;;;;1.57;1.47;;;;;;;12.77;42.11;97294.03;4925193;29;20020;-72
2021/01/21 08:21:21;;;;;;;5.15;2.20;;;;;;;14.17;39.04;97288.28;4933809;29;20047;-72
2021/01/21 08:23:58;;;;;;;5.78;2.03;;;;;;;14.27;38.77;97304.25;4919432;29;20035;-72
2021/01/21 08:26:28;;;;;;;3.08;1.15;;;;;;;14.46;38.07;97284.03;4928597;29;20377;-72
2021/01/21 08:28:53;;;;;;;3.00;1.80;;;;;;;14.67;38.38;97296.78;4926262;29;20023;-72
2021/01/21 08:31:20;;;;;;;1.83;1.25;;;;;;;13.85;40.14;97288.31;4921158;29;20038;-72
2021/01/21 08:33:50;;;;;;;4.35;1.80;;;;;;;13.72;41.04;97286.47;4931503;29;20028;-72
2021/01/21 08:36:22;;;;;;;5.30;1.63;;;;;;;12.70;43.59;97292.66;4921260;29;20024;-72
2021/01/21 08:38:48;;;;;;;2.35;1.20;;;;;;;12.80;44.23;97302.50;4934948;29;20054;-72
2021/01/21 08:41:15;;;;;;;2.85;1.50;;;;;;;12.23;46.16;97301.03;4921737;29;20466;-72
2021/01/21 08:43:42;;;;;;;3.67;1.02;;;;;;;11.94;47.26;97303.28;4931348;29;20019;-72
2021/01/21 08:46:22;;;;;;;5.03;1.33;;;;;;;11.74;48.36;97298.97;4919848;29;20075;-72
2021/01/21 08:48:48;;;;;;;3.42;1.20;;;;;;;11.83;47.82;97302.94;4925324;28;20059;-74
2021/01/21 08:51:44;;;;;;;1.88;0.88;;;;;;;13.50;43.48;97292.84;4928742;29;20059;-74
2021/01/21 08:54:18;;;;;;;1.42;0.70;;;;;;;12.48;46.01;97317.13;4904292;29;20032;-74
2021/01/21 08:57:04;;;;;;;0.60;0.50;;;;;;;12.74;45.38;97302.00;4925679;29;20052;-75
2021/01/21 08:59:30;;;;;;;0.75;0.75;;;;;;;12.83;45.77;97327.53;4931351;29;20032;-67
2021/01/21 09:01:56;;;;;;;0.60;0.60;;;;;;;13.08;45.68;97338.34;4918719;29;20046;-67
2021/01/21 09:04:35;;;;;;;0.75;0.70;;;;;;;15.12;40.87;97319.28;4928312;29;20417;-67
2021/01/21 09:07:01;;;;;;;0.80;0.80;;;;;;;14.74;41.09;97339.78;4926959;29;20102;-68
2021/01/21 09:09:34;;;;;;;0.60;0.60;;;;;;;13.08;44.61;97353.94;4919900;29;20070;-67
2021/01/21 09:12:16;;;;;;;0.60;0.60;;;;;;;12.63;46.70;97356.25;4931325;29;20091;-67
2021/01/21 09:14:42;;;;;;;2.55;0.85;;;;;;;14.79;42.22;97333.38;4923939;29;20038;-67
2021/01/21 09:17:15;;;;;;;1.90;0.70;;;;;;;14.77;42.15;97330.03;4922233;29;20043;-67
2021/01/21 09:19:43;;;;;;;1.90;0.82;;;;;;;14.25;42.47;97332.13;4931108;29;20063;-67
2021/01/21 09:22:11;;;;;;;0.90;0.73;;;;;;;16.16;39.56;97324.16;4919898;29;20099;-67
2021/01/21 09:25:03;;;;;;;0.70;0.70;;;;;;;15.78;39.72;97329.19;4926328;29;20389;-67
2021/01/21 09:27:39;;;;;;;4.10;2.83;;;;;;;16.13;39.48;97329.59;4930403;29;20035;-67
2021/01/21 09:30:06;;;;;;;5.63;1.48;;;;;;;14.74;42.54;97334.56;4904358;29;20050;-67
2021/01/21 09:32:32;;;;;;;0.70;0.70;;;;;;;15.39;40.68;97358.56;4926870;29;20039;-67
2021/01/21 09:35:08;;;;;;;1.38;1.23;;;;;;;16.28;39.73;97353.06;4926127;29;20389;-67
2021/01/21 09:37:38;;;;;;;0.70;0.70;;;;;;;16.91;37.76;97347.22;4918800;29;20028;-68
2021/01/21 09:40:06;;;;;;;1.20;0.68;;;;;;;16.64;38.09;97345.47;4902786;29;20047;-67
2021/01/21 09:42:31;;;;;;;0.98;0.80;;;;;;;16.02;39.40;97347.72;4926728;29;20032;-68
2021/01/21 09:44:57;;;;;;;0.68;0.55;;;;;;;16.14;39.80;97346.09;4926015;29;20028;-67
2021/01/21 09:47:22;;;;;;;3.05;0.60;;;;;;;14.77;42.08;97350.91;4920193;29;20078;-67
2021/01/21 09:49:48;;;;;;;3.63;0.50;;;;;;;13.71;44.90;97326.44;4930834;29;20385;-67
2021/01/21 09:52:13;;;;;;;0.90;0.60;;;;;;;14.07;44.31;97345.28;4920041;29;20058;-67
2021/01/21 09:54:40;;;;;;;2.00;0.80;;;;;;;15.63;41.59;97335.34;4925735;28;20024;-67
2021/01/21 09:57:06;;;;;;;1.10;0.70;;;;;;;16.28;39.79;97333.00;4920735;29;20028;-67
2021/01/21 09:59:32;;;;;;;1.45;0.80;;;;;;;15.71;40.88;97343.56;4922069;29;20028;-67
2021/01/21 10:01:57;;;;;;;0.55;0.50;;;;;;;16.23;40.11;97322.00;4932926;29;20055;-67
2021/01/21 10:04:22;;;;;;;1.17;0.60;;;;;;;16.08;40.51;97326.44;4925008;29;20376;-67
2021/01/21 10:06:48;;;;;;;0.38;0.38;;;;;;;17.00;38.35;97324.84;4927807;28;20020;-67
2021/01/21 10:09:13;;;;;;;0.70;0.70;;;;;;;16.93;38.08;97314.78;4931558;29;20028;-67
2021/01/21 10:11:39;;;;;;;1.38;0.93;;;;;;;17.43;36.90;97317.50;4921507;29;20028;-67
2021/01/21 10:14:05;;;;;;;2.63;0.55;;;;;;;16.72;38.58;97331.06;4930577;29;20442;-73
2021/01/21 10:16:30;;;;;;;1.20;0.80;;;;;;;16.84;38.79;97332.88;4935488;29;20055;-67
2021/01/21 10:18:56;;;;;;;2.17;0.50;;;;;;;17.12;38.15;97327.47;4919261;29;20028;-67
2021/01/21 10:21:26;;;;;;;0.95;0.60;;;;;;;17.24;37.04;97322.34;4937375;29;20567;-74
2021/01/21 10:23:52;;;;;;;0.60;0.60;;;;;;;18.20;36.34;97323.47;4922462;29;20024;-74
2021/01/21 10:26:17;;;;;;;0.80;0.50;;;;;;;16.26;39.67;97334.88;4930279;29;20107;-75
2021/01/21 10:28:43;;;;;;;0.88;0.57;;;;;;;15.21;41.96;97349.22;4926625;29;20050;-74
2021/01/21 10:31:08;;;;;;;6.05;4.50;;;;;;;14.12;44.72;97332.84;4917354;29;20035;-67
2021/01/21 10:33:34;;;;;;;0.70;0.70;;;;;;;13.32;47.08;97335.44;4934068;29;20027;-74
2021/01/21 10:35:59;;;;;;;1.20;0.65;;;;;;;13.61;45.98;97332.13;4935611;29;20043;-73
2021/01/21 10:38:25;;;;;;;4.47;0.70;;;;;;;13.92;45.38;97299.22;4924943;29;20054;-69
2021/01/21 10:40:50;;;;;;;2.25;0.70;;;;;;;15.55;42.19;97312.31;4927129;29;20089;-73
2021/01/21 10:43:16;;;;;;;0.60;0.60;;;;;;;17.25;38.77;97313.53;4931792;29;20034;-67
2021/01/21 10:45:42;;;;;;;2.15;0.80;;;;;;;18.01;36.48;97316.06;4921038;29;20032;-75
2021/01/21 10:48:08;;;;;;;1.45;0.60;;;;;;;18.37;35.98;97322.22;4931854;29;20027;-75
2021/01/21 10:50:33;;;;;;;0.70;0.70;;;;;;;17.67;37.30;97326.28;4919611;29;20056;-74
2021/01/21 10:52:59;;;;;;;0.40;0.40;;;;;;;15.63;41.44;97320.53;4918109;29;20062;-74
2021/01/21 10:55:24;;;;;;;2.58;1.08;;;;;;;14.95;43.50;97332.50;4932473;29;20031;-74
2021/01/21 10:57:51;;;;;;;0.75;0.55;;;;;;;15.39;42.96;97328.06;4933612;29;20469;-76
2021/01/21 11:00:17;;;;;;;5.50;1.33;;;;;;;16.37;40.65;97332.41;4937546;29;20051;-68
2021/01/21 11:02:43;;;;;;;1.83;0.60;;;;;;;15.10;43.72;97347.25;4927679;29;20427;-67
2021/01/21 11:05:08;;;;;;;2.05;0.60;;;;;;;14.48;44.13;97329.09;4924745;29;20052;-73
2021/01/21 11:07:34;;;;;;;1.55;0.57;;;;;;;14.08;45.51;97335.69;4921727;29;20035;-74
2021/01/21 11:09:59;;;;;;;0.65;0.65;;;;;;;14.04;46.99;97334.19;4939852;29;20524;-74
2021/01/21 11:12:24;;;;;;;3.65;0.63;;;;;;;15.31;44.90;97329.47;4934122;29;20529;-68
2021/01/21 11:14:53;;;;;;;0.70;0.60;;;;;;;16.24;41.26;97328.06;4927059;29;20071;-69
2021/01/21 11:17:18;;;;;;;1.10;1.10;;;;;;;16.07;41.35;97336.97;4939772;29;20163;-67
2021/01/21 11:19:43;;;;;;;2.55;1.92;;;;;;;16.02;41.89;97333.81;4920543;29;20423;-68
2021/01/21 11:22:10;;;;;;;0.60;0.60;;;;;;;18.18;38.24;97318.34;4932266;29;20035;-69
2021/01/21 11:24:35;;;;;;;1.08;0.82;;;;;;;19.04;35.78;97319.03;4926661;29;20031;-73
2021/01/21 11:27:01;;;;;;;2.38;0.52;;;;;;;19.20;35.52;97316.94;4928383;29;20389;-69
2021/01/21 11:29:26;;;;;;;1.65;0.75;;;;;;;17.48;38.38;97316.25;4932349;29;20107;-69
2021/01/21 11:31:53;;;;;;;5.00;1.10;;;;;;;15.76;41.25;97314.53;4920222;29;20429;-67
2021/01/21 11:34:19;;;;;;;3.58;0.80;;;;;;;15.00;44.46;97320.88;4929806;28;20025;-69
2021/01/21 11:36:44;;;;;;;1.27;0.70;;;;;;;14.41;46.70;97322.53;4918106;29;20028;-74
2021/01/21 11:39:10;;;;;;;3.42;0.70;;;;;;;14.04;46.44;97314.19;4908253;29;20091;-67
2021/01/21 11:41:36;;;;;;;1.80;0.70;;;;;;;13.94;47.52;97313.00;4902227;29;20059;-67
2021/01/21 11:44:01;;;;;;;3.45;1.50;;;;;;;13.77;47.37;97313.91;4907096;29;20028;-67
2021/01/21 11:46:26;;;;;;;1.55;0.70;;;;;;;13.59;47.61;97307.97;4906307;29;20028;-67
2021/01/21 11:48:52;;;;;;;1.60;0.60;;;;;;;13.65;47.97;97312.00;4905043;29;20086;-67
2021/01/21 11:51:18;;;;;;;0.70;0.65;;;;;;;13.57;47.77;97304.59;4907996;29;20032;-67
2021/01/21 11:53:44;;;;;;;0.85;0.80;;;;;;;13.54;48.36;97299.56;4922519;29;20139;-67
2021/01/21 11:56:09;;;;;;;1.75;0.70;;;;;;;13.53;48.24;97308.28;4903101;29;20028;-73
2021/01/21 11:58:34;;;;;;;0.70;0.70;;;;;;;13.66;48.51;97303.25;4920725;29;20446;-74
2021/01/21 12:01:00;;;;;;;1.63;0.90;;;;;;;13.73;48.11;97307.22;4905490;29;20028;-67
2021/01/21 12:03:26;;;;;;;1.48;0.80;;;;;;;13.78;47.47;97306.94;4906157;28;20032;-74
2021/01/21 12:05:51;;;;;;;2.20;0.80;;;;;;;13.55;48.09;97303.00;4904255;29;20033;-67
2021/01/21 12:08:16;;;;;;;2.22;0.93;;;;;;;13.78;48.34;97291.31;4897798;29;21077;-67
2021/01/21 12:10:42;;;;;;;0.60;0.57;;;;;;;13.80;48.09;97300.75;4907700;29;20498;-67
2021/01/21 12:13:07;;;;;;;1.42;1.00;;;;;;;13.70;47.88;97289.16;4907646;29;20159;-74
2021/01/21 12:15:32;;;;;;;4.55;2.30;;;;;;;13.51;47.78;97294.50;4905651;29;20033;-69
2021/01/21 12:17:58;;;;;;;2.72;1.27;;;;;;;13.60;47.87;97286.22;4903042;29;20031;-73
2021/01/21 12:20:23;;;;;;;5.22;3.10;;;;;;;13.75;48.06;97287.13;4905481;29;20522;-69
2021/01/21 12:22:49;;;;;;;47.28;19.77;;;;;;;13.92;47.87;97277.56;4902913;29;20419;-75
2021/01/21 12:25:14;;;;;;;13.55;4.57;;;;;;;13.76;47.78;97283.59;4905444;29;20028;-69
2021/01/21 12:27:40;;;;;;;40.63;16.52;;;;;;;14.00;47.89;97271.00;4902623;29;20111;-69
2021/01/21 12:30:06;;;;;;;23.08;8.35;;;;;;;14.20;47.35;97282.06;4904071;29;20020;-67
2021/01/21 12:32:31;;;;;;;48.17;17.02;;;;;;;14.43;46.96;97278.97;4908658;29;20032;-73
2021/01/21 12:34:57;;;;;;;38.50;14.70;;;;;;;14.31;46.67;97279.66;4910762;29;20035;-67
2021/01/21 12:37:22;;;;;;;23.77;9.00;;;;;;;14.18;46.78;97273.50;4906983;29;20437;-74
2021/01/21 12:39:48;;;;;;;23.23;10.73;;;;;;;14.37;46.91;97261.09;4911085;29;20040;-70
2021/01/21 12:42:13;;;;;;;17.88;9.32;;;;;;;13.87;47.15;97270.81;4907963;29;20469;-69
2021/01/21 12:44:40;;;;;;;1.65;1.17;;;;;;;13.67;47.42;97262.44;4909509;29;20493;-69
2021/01/21 12:47:06;;;;;;;4.30;2.38;;;;;;;13.92;46.96;97265.38;4923441;29;20512;-74
2021/01/21 12:49:31;;;;;;;12.45;6.97;;;;;;;13.98;46.70;97262.44;4904632;29;20036;-71
2021/01/21 12:51:56;;;;;;;7.13;3.55;;;;;;;13.96;46.86;97263.44;4904841;29;20075;-68
2021/01/21 12:54:22;;;;;;;7.30;3.92;;;;;;;13.86;47.19;97263.13;4904795;29;20087;-66
2021/01/21 12:56:47;;;;;;;1.27;1.15;;;;;;;13.87;47.49;97254.38;4909263;29;20027;-72
2021/01/21 12:59:13;;;;;;;1.95;0.90;;;;;;;13.97;47.33;97259.91;4909124;29;20043;-73
2021/01/21 13:01:39;;;;;;;4.18;1.92;;;;;;;13.74;48.02;97263.81;4911839;29;20043;-74
2021/01/21 13:04:04;;;;;;;6.70;3.15;;;;;;;13.82;47.59;97272.00;4908277;29;20035;-68
2021/01/21 13:06:30;;;;;;;6.15;3.13;;;;;;;13.62;47.97;97266.13;4903479;29;20028;-68
2021/01/21 13:08:55;;;;;;;14.02;5.80;;;;;;;13.65;48.23;97274.72;4902188;29;20494;-68
2021/01/21 13:11:21;;;;;;;6.55;3.60;;;;;;;13.61;48.00;97272.28;4906852;29;20115;-66
2021/01/21 13:13:47;;;;;;;6.55;3.78;;;;;;;13.54;48.96;97263.13;4906967;29;20417;-68
2021/01/21 13:16:12;;;;;;;16.00;8.13;;;;;;;13.40;49.26;97260.44;4955793;23;20049;-74
2021/01/21 13:18:37;;;;;;;3.38;1.17;;;;;;;13.23;50.00;97268.28;4893882;29;20087;-74
2021/01/21 13:21:03;;;;;;;9.75;5.60;;;;;;;13.18;50.03;97270.25;4893787;29;20119;-74
2021/01/21 13:23:28;;;;;;;9.65;4.97;;;;;;;13.15;50.72;97273.00;4894013;29;20025;-74
2021/01/21 13:25:54;;;;;;;4.00;1.48;;;;;;;13.15;51.03;97271.28;4893654;29;20028;-74
2021/01/21 13:28:19;;;;;;;0.85;0.80;;;;;;;13.12;50.64;97272.25;4893517;29;20052;-74
2021/01/21 13:30:45;;;;;;;2.88;1.02;;;;;;;13.00;50.93;97272.03;4893785;29;20205;-75
2021/01/21 13:33:10;;;;;;;2.22;1.58;;;;;;;13.03;51.66;97277.94;4896866;29;20062;-75
2021/01/21 13:35:36;;;;;;;1.30;0.90;;;;;;;13.08;51.23;97270.75;4896796;29;20419;-75
2021/01/21 13:38:01;;;;;;;0.88;0.75;;;;;;;13.06;51.72;97279.56;4896824;29;20435;-76
2021/01/21 13:40:26;;;;;;;1.63;1.52;;;;;;;12.91;52.50;97289.00;4897280;29;20091;-75
2021/01/21 13:42:53;;;;;;;1.80;0.98;;;;;;;12.79;52.12;97289.59;4897205;29;20052;-76
2021/01/21 13:45:18;;;;;;;1.00;0.90;;;;;;;12.67;52.36;97296.28;4897380;29;20083;-76
2021/01/21 13:47:43;;;;;;;2.85;1.02;;;;;;;12.65;53.14;97307.66;4897080;29;20537;-76
2021/01/21 13:50:11;;;;;;;0.60;0.60;;;;;;;12.57;53.27;97301.09;4897262;29;20059;-76
2021/01/21 13:52:36;;;;;;;0.98;0.82;;;;;;;12.55;53.79;97299.47;4896982;29;20088;-76
2021/01/21 13:55:02;;;;;;;2.03;1.33;;;;;;;12.52;52.99;97297.88;4896933;29;20032;-75
2021/01/21 13:57:27;;;;;;;1.73;1.20;;;;;;;12.50;54.45;97286.69;4896814;29;20083;-75
2021/01/21 13:59:53;;;;;;;2.22;0.90;;;;;;;12.50;54.61;97297.09;4897548;29;20033;-76
2021/01/21 14:02:18;;;;;;;2.42;1.75;;;;;;;12.55;53.97;97297.72;4897051;29;20111;-75
2021/01/21 14:04:47;;;;;;;1.25;0.82;;;;;;;12.42;54.80;97299.22;4897007;29;20024;-75
2021/01/21 14:07:12;;;;;;;0.90;0.90;;;;;;;12.33;54.81;97297.09;4896692;29;20040;-76
2021/01/21 14:09:37;;;;;;;0.65;0.65;;;;;;;12.28;54.58;97288.66;4896983;29;20685;-76
2021/01/21 14:12:03;;;;;;;1.75;1.13;;;;;;;12.27;54.85;97292.19;4896791;29;20032;-75
2021/01/21 14:14:28;;;;;;;2.45;1.25;;;;;;;12.25;55.94;97294.03;4896728;29;20028;-76
2021/01/21 14:16:53;;;;;;;1.00;0.90;;;;;;;12.37;56.03;97296.00;4896169;29;20039;-75
2021/01/21 14:19:19;;;;;;;5.03;3.53;;;;;;;12.38;55.96;97289.94;4896738;29;20056;-75
2021/01/21 14:21:44;;;;;;;10.95;4.75;;;;;;;12.28;56.41;97286.06;4896349;29;20508;-75
2021/01/21 14:24:13;;;;;;;10.23;3.75;;;;;;;12.28;56.41;97288.66;4896463;29;20032;-75
2021/01/21 14:26:41;;;;;;;3.40;2.50;;;;;;;12.26;56.46;97280.97;4896213;29;20499;-75
2021/01/21 14:29:07;;;;;;;0.60;0.60;;;;;;;12.25;56.40;97284.47;4896601;29;20119;-75
2021/01/21 14:31:32;;;;;;;0.80;0.80;;;;;;;12.32;56.34;97290.19;4896255;29;20119;-76
2021/01/21 14:33:58;;;;;;;1.30;0.90;;;;;;;12.27;56.45;97297.38;4896365;29;20046;-75
2021/01/21 14:36:24;;;;;;;0.95;0.85;;;;;;;12.15;56.33;97300.59;4896500;29;20036;-75
2021/01/21 14:38:49;;;;;;;1.27;0.88;;;;;;;12.12;57.11;97298.13;4896234;29;20035;-75
2021/01/21 14:41:15;;;;;;;0.70;0.57;;;;;;;12.09;57.14;97299.97;4896637;29;20703;-75
2021/01/21 14:43:40;;;;;;;0.70;0.70;;;;;;;12.01;57.91;97296.88;4895772;29;20092;-75
2021/01/21 14:46:05;;;;;;;0.60;0.60;;;;;;;12.02;57.28;97289.94;4896208;29;20482;-76
2021/01/21 14:48:30;;;;;;;3.45;1.88;;;;;;;12.05;57.52;97285.44;4895931;29;20035;-76
2021/01/21 14:50:56;;;;;;;2.30;0.70;;;;;;;12.01;57.83;97290.84;4896115;29;20039;-76
2021/01/21 14:53:21;;;;;;;0.70;0.70;;;;;;;11.84;58.53;97289.03;4896398;29;20390;-76
2021/01/21 14:55:47;;;;;;;0.75;0.68;;;;;;;11.83;58.49;97284.78;4895780;29;20133;-75
2021/01/21 14:58:12;;;;;;;1.77;0.80;;;;;;;11.74;58.64;97292.94;4895950;29;20091;-76
2021/01/21 15:00:37;;;;;;;1.02;0.90;;;;;;;11.74;57.84;97290.34;4894129;29;20107;-76
2021/01/21 15:03:03;;;;;;;1.40;1.00;;;;;;;11.71;58.54;97288.75;4896200;29;20115;-75
2021/01/21 15:05:29;;;;;;;1.05;0.90;;;;;;;11.67;58.73;97286.38;4895906;29;20450;-76
2021/01/21 15:07:56;;;;;;;2.80;0.82;;;;;;;11.69;58.81;97292.31;4895547;29;20084;-76
2021/01/21 15:10:23;;;;;;;3.83;0.90;;;;;;;11.64;58.30;97283.91;4895470;29;20029;-76
2021/01/21 15:12:48;;;;;;;6.63;1.30;;;;;;;11.54;58.74;97301.66;4895368;29;20030;-76
2021/01/21 15:15:14;;;;;;;1.42;0.90;;;;;;;11.56;58.92;97290.31;4895001;29;20059;-76
2021/01/21 15:17:39;;;;;;;6.85;3.33;;;;;;;11.54;59.22;97275.72;4895185;29;20351;-76
2021/01/21 15:20:05;;;;;;;1.85;1.00;;;;;;;11.51;58.96;97289.69;4894905;29;20043;-76
2021/01/21 15:22:30;;;;;;;1.60;1.50;;;;;;;11.53;58.09;97284.41;4895135;29;20032;-76
2021/01/21 15:24:56;;;;;;;3.70;1.30;;;;;;;11.48;58.25;97289.81;4894968;29;20534;-75
2021/01/21 15:27:21;;;;;;;0.80;0.80;;;;;;;11.50;58.41;97295.75;4895351;29;20549;-76
2021/01/21 15:29:47;;;;;;;8.38;3.75;;;;;;;11.45;58.52;97296.88;4895425;29;20476;-76
2021/01/21 15:32:12;;;;;;;1.13;1.00;;;;;;;11.41;59.04;97285.81;4895191;29;20029;-75
2021/01/21 15:34:38;;;;;;;3.03;0.93;;;;;;;11.30;59.23;97288.88;4895077;29;20080;-76
2021/01/21 15:37:03;;;;;;;1.00;0.80;;;;;;;11.29;59.12;97286.38;4895807;29;20027;-75
2021/01/21 15:39:29;;;;;;;1.08;0.90;;;;;;;11.28;58.78;97277.75;4895321;29;20115;-76
2021/01/21 15:41:54;;;;;;;7.68;3.90;;;;;;;11.24;59.44;97281.38;4895194;29;20398;-76
2021/01/21 15:44:19;;;;;;;1.30;0.90;;;;;;;11.20;59.29;97279.00;4895259;29;20112;-76
2021/01/21 15:46:44;;;;;;;2.25;1.00;;;;;;;11.15;59.73;97268.00;4895162;29;20036;-76
2021/01/21 15:49:10;;;;;;;1.38;0.90;;;;;;;11.15;59.62;97257.63;4895072;29;20043;-76
2021/01/21 15:51:36;;;;;;;1.40;1.30;;;;;;;11.15;59.38;97253.28;4894584;29;20119;-76
2021/01/21 15:54:02;;;;;;;2.28;1.48;;;;;;;11.13;59.35;97260.28;4894549;29;20032;-76
2021/01/21 15:56:27;;;;;;;2.60;0.85;;;;;;;11.19;58.74;97251.41;4894386;29;20401;-76
2021/01/21 15:58:52;;;;;;;3.10;1.13;;;;;;;11.09;59.23;97255.31;4894994;29;20557;-76
2021/01/21 16:01:18;;;;;;;1.48;1.20;;;;;;;11.14;59.15;97266.31;4894255;29;20032;-76
2021/01/21 16:03:43;;;;;;;3.67;1.42;;;;;;;11.15;58.87;97268.00;4895024;29;20031;-76
2021/01/21 16:06:08;;;;;;;1.20;0.98;;;;;;;11.22;58.36;97270.25;4894809;29;20540;-76
2021/01/21 16:08:34;;;;;;;3.95;2.28;;;;;;;11.21;58.78;97267.72;4893826;29;20032;-75
2021/01/21 16:10:59;;;;;;;1.23;0.88;;;;;;;11.24;58.58;97273.59;4894731;29;20029;-77
2021/01/21 16:13:24;;;;;;;1.58;1.10;;;;;;;11.21;58.77;97267.72;4894881;29;20028;-76
2021/01/21 16:15:50;;;;;;;1.48;1.38;;;;;;;11.20;58.95;97260.84;4894594;29;20446;-75
2021/01/21 16:18:15;;;;;;;2.17;0.98;;;;;;;11.26;58.27;97255.38;4895036;29;20646;-76
2021/01/21 16:20:42;;;;;;;4.22;1.20;;;;;;;11.26;58.11;97252.78;4894426;29;20032;-76
2021/01/21 16:23:09;;;;;;;0.90;0.90;;;;;;;11.27;58.64;97257.09;4894672;29;21080;-76
2021/01/21 16:25:34;;;;;;;1.10;1.00;;;;;;;11.31;58.44;97253.41;4894403;29;20039;-76
2021/01/21 16:27:59;;;;;;;0.95;0.90;;;;;;;11.25;58.50;97253.69;4894676;29;20032;-76
2021/01/21 16:30:25;;;;;;;1.60;1.17;;;;;;;11.25;58.33;97253.69;4894573;29;20047;-76
2021/01/21 16:32:50;;;;;;;1.20;1.10;;;;;;;11.22;58.22;97253.84;4894874;29;20158;-76
2021/01/21 16:35:15;;;;;;;1.73;1.00;;;;;;;11.23;58.43;97246.00;4894377;29;20414;-76
2021/01/21 16:37:41;;;;;;;2.90;0.90;;;;;;;11.13;59.07;97239.56;4894427;29;20544;-76
2021/01/21 16:40:08;;;;;;;0.90;0.90;;;;;;;11.12;59.55;97237.00;4894507;29;20699;-76
2021/01/21 16:42:34;;;;;;;7.18;3.83;;;;;;;11.07;59.59;97235.50;4894200;29;20466;-76
2021/01/21 16:45:01;;;;;;;1.30;1.20;;;;;;;11.09;59.38;97231.97;4894188;29;20039;-76
2021/01/21 16:47:27;;;;;;;0.98;0.90;;;;;;;11.11;59.76;97235.34;4894197;29;20118;-76
2021/01/21 16:49:54;;;;;;;1.17;1.08;;;;;;;11.06;59.54;97228.59;4894503;29;20534;-76
2021/01/21 16:52:20;;;;;;;2.30;0.95;;;;;;;11.01;60.29;97234.91;4894102;29;20043;-76
2021/01/21 16:54:46;;;;;;;4.03;0.90;;;;;;;10.99;60.07;97237.56;4893814;29;20430;-76
2021/01/21 16:57:12;;;;;;;1.92;1.13;;;;;;;11.02;60.28;97231.41;4886936;29;20035;-76
2021/01/21 16:59:43;;;;;;;3.88;0.98;;;;;;;10.99;60.47;97231.56;4894498;29;20032;-76
2021/01/21 17:02:09;;;;;;;4.50;2.97;;;;;;;10.99;60.79;97232.41;4893924;29;20043;-76
2021/01/21 17:04:35;;;;;;;1.00;0.80;;;;;;;10.88;61.07;97228.56;4894247;29;20033;-76
2021/01/21 17:07:02;;;;;;;0.80;0.80;;;;;;;10.97;60.70;97226.41;4894093;29;20522;-76
2021/01/21 17:09:27;;;;;;;0.60;0.60;;;;;;;10.95;60.53;97230.84;4894087;29;20039;-77
2021/01/21 17:11:52;;;;;;;0.88;0.80;;;;;;;10.91;60.53;97226.69;4894366;29;20032;-70
2021/01/21 17:14:18;;;;;;;4.15;0.82;;;;;;;10.93;60.39;97231.84;4894190;29;20390;-70
2021/01/21 17:16:43;;;;;;;1.20;0.90;;;;;;;10.97;60.06;97241.97;4893820;29;20032;-70
2021/01/21 17:19:08;;;;;;;2.00;0.80;;;;;;;10.91;60.34;97239.66;4894167;29;20032;-70
2021/01/21 17:21:34;;;;;;;1.42;1.00;;;;;;;10.92;60.74;97241.34;4893886;29;20430;-70
2021/01/21 17:23:59;;;;;;;1.70;0.90;;;;;;;10.93;60.65;97242.19;4893953;29;20039;-70
2021/01/21 17:26:24;;;;;;;2.05;0.90;;;;;;;10.99;60.45;97241.91;4893991;29;20379;-70
2021/01/21 17:28:49;;;;;;;1.05;0.90;;;;;;;10.92;61.10;97236.16;4893992;29;20036;-70
2021/01/21 17:31:15;;;;;;;1.05;0.85;;;;;;;10.90;61.38;97232.81;4893784;29;20454;-69
2021/01/21 17:33:40;;;;;;;2.42;0.90;;;;;;;10.93;60.87;97230.09;4894171;29;20035;-69
2021/01/21 17:36:06;;;;;;;1.48;1.00;;;;;;;10.87;61.44;97227.75;4893807;29;20055;-69